createdAt,value
2022-09-09T00:04:52.649Z,15.60
2022-09-09T00:10:22.069Z,15.60
2022-09-09T00:15:47.338Z,15.70
2022-09-09T00:21:01.964Z,15.70
2022-09-09T00:26:48.768Z,15.70
2022-09-09T00:37:44.870Z,15.80
2022-09-09T00:43:03.396Z,15.70
2022-09-09T01:00:06.836Z,15.80
2022-09-09T01:05:44.011Z,15.60
2022-09-09T01:11:11.710Z,15.60
2022-09-09T01:16:16.482Z,15.60
2022-09-09T01:21:55.435Z,15.70
2022-09-09T01:27:11.183Z,15.70
2022-09-09T01:32:43.026Z,15.70
2022-09-09T01:37:49.327Z,15.80
2022-09-09T01:43:01.512Z,15.80
2022-09-09T01:48:11.638Z,15.80
2022-09-09T01:53:36.972Z,15.90
2022-09-09T01:59:10.133Z,15.90
2022-09-09T02:04:33.886Z,15.90
2022-09-09T02:09:41.160Z,16.00
2022-09-09T02:15:12.365Z,16.00
2022-09-09T02:20:29.078Z,16.00
2022-09-09T02:25:37.937Z,15.90
2022-09-09T02:31:06.979Z,15.90
2022-09-09T02:36:29.454Z,16.00
2022-09-09T02:41:37.426Z,15.90
2022-09-09T02:47:15.247Z,15.90
2022-09-09T02:58:11.514Z,15.90
2022-09-09T03:03:24.428Z,15.90
2022-09-09T03:08:35.685Z,16.00
2022-09-09T03:13:41.216Z,16.00
2022-09-09T03:19:03.182Z,15.90
2022-09-09T03:24:37.159Z,16.00
2022-09-09T03:29:53.649Z,16.00
2022-09-09T03:35:06.326Z,16.00
2022-09-09T03:46:40.328Z,16.00
2022-09-09T03:51:50.436Z,16.00
2022-09-09T03:57:02.498Z,15.90
2022-09-09T04:02:13.491Z,16.00
2022-09-09T04:07:20.975Z,15.90
2022-09-09T04:12:55.092Z,15.90
2022-09-09T04:24:14.736Z,15.60
2022-09-09T04:41:39.826Z,15.50
2022-09-09T05:04:43.335Z,15.50
2022-09-09T05:09:53.251Z,15.40
2022-09-09T05:15:23.436Z,15.30
2022-09-09T05:20:34.413Z,15.20
2022-09-09T05:25:50.246Z,15.10
2022-09-09T05:31:04.235Z,15.00
2022-09-09T05:36:17.059Z,15.00
2022-09-09T05:41:22.272Z,15.00
2022-09-09T05:46:46.961Z,14.90
2022-09-09T05:57:42.878Z,14.90
2022-09-09T06:08:25.057Z,14.80
2022-09-09T06:13:40.931Z,14.90
2022-09-09T06:19:15.705Z,14.90
2022-09-09T06:24:25.407Z,14.80
2022-09-09T06:29:34.224Z,14.80
2022-09-09T06:35:09.023Z,14.90
2022-09-09T06:40:22.522Z,14.90
2022-09-09T06:45:36.022Z,15.00
2022-09-09T06:50:50.035Z,15.20
2022-09-09T07:08:21.703Z,15.20
2022-09-09T07:13:54.162Z,15.50
2022-09-09T07:19:34.603Z,15.70
2022-09-09T07:24:56.192Z,16.10
2022-09-09T07:30:35.846Z,16.10
2022-09-09T08:12:01.964Z,16.20
2022-09-09T08:17:47.556Z,16.60
2022-09-09T08:42:59.946Z,17.00
2022-09-09T08:49:03.532Z,17.20
2022-09-09T09:06:32.459Z,17.80
2022-09-09T09:12:17.980Z,17.80
2022-09-09T09:18:03.830Z,17.90
2022-09-09T09:23:26.744Z,17.90
2022-09-09T09:28:37.686Z,18.50
2022-09-09T09:34:00.337Z,18.30
2022-09-09T09:44:43.320Z,18.20
2022-09-09T09:50:10.001Z,18.30
2022-09-09T09:55:23.809Z,18.00
2022-09-09T10:00:26.656Z,17.60
2022-09-09T10:05:37.775Z,18.20
2022-09-09T10:11:36.070Z,18.80
2022-09-09T10:29:49.587Z,18.80
2022-09-09T10:40:54.948Z,18.70
2022-09-09T10:46:11.445Z,18.70
2022-09-09T10:51:32.664Z,18.70
2022-09-09T10:57:45.206Z,18.70
2022-09-09T11:03:16.215Z,18.90
2022-09-09T11:13:45.102Z,19.10
2022-09-09T11:18:50.342Z,19.10
2022-09-09T11:24:34.382Z,19.00
2022-09-09T11:30:01.935Z,19.00
2022-09-09T11:35:52.529Z,19.20
2022-09-09T11:41:06.117Z,19.40
2022-09-09T11:46:19.509Z,19.20
2022-09-09T11:51:37.551Z,19.30
2022-09-09T11:56:46.903Z,19.60
2022-09-09T12:02:23.995Z,19.80
2022-09-09T12:07:46.255Z,19.80
2022-09-09T12:12:48.425Z,20.00
2022-09-09T12:18:00.160Z,19.90
2022-09-09T12:23:08.667Z,19.70
2022-09-09T12:28:22.594Z,19.90
2022-09-09T12:33:26.125Z,20.00
2022-09-09T12:38:39.516Z,20.30
2022-09-09T12:43:48.610Z,19.90
2022-09-09T12:48:57.361Z,19.90
2022-09-09T12:54:03.098Z,20.10
2022-09-09T12:59:28.391Z,20.00
2022-09-09T13:04:32.400Z,19.80
2022-09-09T13:09:36.366Z,19.60
2022-09-09T13:14:40.424Z,19.60
2022-09-09T13:19:46.662Z,19.50
2022-09-09T13:25:10.070Z,18.80
2022-09-09T13:30:38.095Z,18.30
2022-09-09T13:36:10.025Z,18.20
2022-09-09T13:41:30.785Z,18.30
2022-09-09T13:46:57.282Z,18.60
2022-09-09T13:52:28.710Z,19.10
2022-09-09T13:57:55.434Z,19.40
2022-09-09T14:02:58.619Z,19.40
2022-09-09T14:08:09.223Z,19.10
2022-09-09T14:13:13.734Z,19.50
2022-09-09T14:18:15.801Z,19.60
2022-09-09T14:23:18.375Z,19.90
2022-09-09T14:28:45.143Z,19.80
2022-09-09T14:33:47.236Z,20.00
2022-09-09T14:38:51.927Z,19.70
2022-09-09T14:43:56.701Z,19.20
2022-09-09T14:49:01.870Z,19.10
2022-09-09T14:54:15.571Z,19.10
2022-09-09T14:59:21.211Z,19.10
2022-09-09T15:04:24.095Z,19.20
2022-09-09T15:09:32.180Z,19.50
2022-09-09T15:14:35.308Z,19.60
2022-09-09T15:19:39.225Z,19.50
2022-09-09T15:24:42.525Z,19.50
2022-09-09T15:29:46.161Z,19.30
2022-09-09T15:34:52.379Z,19.40
2022-09-09T15:39:55.529Z,19.50
2022-09-09T15:45:02.985Z,18.90
2022-09-09T15:50:06.853Z,18.80
2022-09-09T15:55:15.449Z,19.20
2022-09-09T16:00:24.081Z,19.10
2022-09-09T16:05:30.524Z,18.90
2022-09-09T16:10:37.517Z,18.70
2022-09-09T16:15:39.764Z,18.70
2022-09-09T16:21:01.986Z,19.00
2022-09-09T16:26:19.968Z,19.10
2022-09-09T16:31:33.860Z,19.40
2022-09-09T16:36:49.460Z,19.60
2022-09-09T16:41:57.714Z,19.80
2022-09-09T16:47:12.091Z,19.50
2022-09-09T16:52:42.111Z,19.20
2022-09-09T16:57:44.548Z,18.80
2022-09-09T17:03:01.311Z,18.70
2022-09-09T17:08:50.348Z,18.60
2022-09-09T17:14:03.782Z,18.50
2022-09-09T17:19:24.125Z,18.50
2022-09-09T17:24:59.160Z,18.60
2022-09-09T17:30:13.565Z,18.60
2022-09-09T17:35:55.907Z,18.40
2022-09-09T17:41:18.810Z,18.30
2022-09-09T17:46:35.961Z,19.40
2022-09-09T17:51:48.287Z,19.30
2022-09-09T17:57:09.401Z,19.20
2022-09-09T18:02:48.793Z,19.00
2022-09-09T18:08:26.941Z,18.80
2022-09-09T18:18:59.613Z,18.00
2022-09-09T18:24:11.173Z,17.60
2022-09-09T18:29:27.266Z,17.50
2022-09-09T18:34:39.550Z,17.30
2022-09-09T18:39:55.662Z,17.10
2022-09-09T18:45:04.116Z,17.00
2022-09-09T18:50:12.404Z,17.00
2022-09-09T18:55:19.889Z,16.90
2022-09-09T19:00:38.550Z,16.70
2022-09-09T19:05:46.067Z,16.60
2022-09-09T19:10:53.624Z,16.50
2022-09-09T19:16:08.859Z,16.40
2022-09-09T19:21:29.651Z,16.40
2022-09-09T19:26:56.977Z,16.30
2022-09-09T19:32:49.660Z,16.20
2022-09-09T19:38:25.590Z,16.20
2022-09-09T19:43:45.477Z,16.20
2022-09-09T19:48:54.088Z,16.20
2022-09-09T19:54:19.477Z,16.20
2022-09-09T19:59:54.494Z,16.20
2022-09-09T20:11:10.284Z,16.20
2022-09-09T20:16:52.062Z,16.20
2022-09-09T20:22:38.100Z,16.20
2022-09-09T20:27:53.256Z,16.10
2022-09-09T20:33:29.460Z,15.90
2022-09-09T20:39:23.105Z,15.70
2022-09-09T20:50:16.601Z,15.40
2022-09-09T20:56:02.965Z,15.40
2022-09-09T21:07:05.725Z,15.30
2022-09-09T21:12:13.337Z,15.20
2022-09-09T21:17:27.618Z,15.20
2022-09-09T21:22:51.918Z,15.10
2022-09-09T21:28:13.167Z,15.10
2022-09-09T21:33:47.800Z,15.10
2022-09-09T21:44:39.420Z,14.90
2022-09-09T21:49:41.812Z,14.90
2022-09-09T21:54:48.301Z,14.80
2022-09-09T22:00:00.883Z,14.80
2022-09-09T22:05:33.400Z,14.80
2022-09-09T22:10:54.656Z,14.80
2022-09-09T22:16:18.027Z,14.70
2022-09-09T22:32:44.059Z,14.60
2022-09-09T22:37:53.206Z,14.60
2022-09-09T22:42:57.665Z,14.60
2022-09-09T23:10:45.346Z,14.90
2022-09-09T23:16:58.160Z,15.00
2022-09-09T23:28:32.928Z,15.10
2022-09-09T23:33:55.025Z,15.20
2022-09-09T23:44:57.955Z,15.20
2022-09-09T23:50:13.835Z,15.20
